createdAt,value
2023-04-19T00:02:26.652Z,8.70
2023-04-19T00:04:55.615Z,8.70
2023-04-19T00:07:23.629Z,8.60
2023-04-19T00:09:51.384Z,8.60
2023-04-19T00:12:19.185Z,8.60
2023-04-19T00:14:47.006Z,8.50
2023-04-19T00:17:16.785Z,8.60
2023-04-19T00:19:44.532Z,8.60
2023-04-19T00:22:12.408Z,8.40
2023-04-19T00:24:40.328Z,8.50
2023-04-19T00:27:08.110Z,8.50
2023-04-19T00:29:35.968Z,8.40
2023-04-19T00:32:05.757Z,8.40
2023-04-19T00:34:34.944Z,8.40
2023-04-19T00:37:04.502Z,8.40
2023-04-19T00:39:32.497Z,8.50
2023-04-19T00:42:01.012Z,8.40
2023-04-19T00:44:28.860Z,8.40
2023-04-19T00:46:57.976Z,8.30
2023-04-19T00:49:26.527Z,8.40
2023-04-19T00:51:55.771Z,8.40
2023-04-19T00:54:24.887Z,8.30
2023-04-19T00:56:53.029Z,8.40
2023-04-19T00:59:21.109Z,8.40
2023-04-19T01:01:48.950Z,8.40
2023-04-19T01:04:17.685Z,8.40
2023-04-19T01:06:45.815Z,8.30
2023-04-19T01:09:14.987Z,8.30
2023-04-19T01:11:43.622Z,8.30
2023-04-19T01:14:11.572Z,8.30
2023-04-19T01:16:39.973Z,8.30
2023-04-19T01:19:08.398Z,8.40
2023-04-19T01:21:38.275Z,8.30
2023-04-19T01:24:08.073Z,8.30
2023-04-19T01:26:35.954Z,8.30
2023-04-19T01:29:03.808Z,8.30
2023-04-19T01:31:31.668Z,8.30
2023-04-19T01:33:59.472Z,8.30
2023-04-19T01:36:27.790Z,8.40
2023-04-19T01:38:56.752Z,8.30
2023-04-19T01:41:27.114Z,8.40
2023-04-19T01:43:55.104Z,8.40
2023-04-19T01:46:22.958Z,8.40
2023-04-19T01:48:50.700Z,8.30
2023-04-19T01:51:18.622Z,8.30
2023-04-19T01:53:46.430Z,8.30
2023-04-19T01:56:14.201Z,8.40
2023-04-19T01:58:43.343Z,8.30
2023-04-19T02:01:12.605Z,8.30
2023-04-19T02:03:40.838Z,8.30
2023-04-19T02:06:11.941Z,8.30
2023-04-19T02:08:39.764Z,8.30
2023-04-19T02:11:08.863Z,8.20
2023-04-19T02:13:36.755Z,8.30
2023-04-19T02:16:06.846Z,8.40
2023-04-19T02:18:35.881Z,8.40
2023-04-19T02:21:03.684Z,8.50
2023-04-19T02:23:31.550Z,8.50
2023-04-19T02:25:59.370Z,8.40
2023-04-19T02:28:27.155Z,8.40
2023-04-19T02:30:54.967Z,8.30
2023-04-19T02:33:24.304Z,8.30
2023-04-19T02:35:52.141Z,8.30
2023-04-19T02:38:19.946Z,8.30
2023-04-19T02:40:47.707Z,8.20
2023-04-19T02:43:15.503Z,8.20
2023-04-19T02:45:43.369Z,8.20
2023-04-19T02:48:11.256Z,8.20
2023-04-19T02:50:40.682Z,8.30
2023-04-19T02:53:08.472Z,8.20
2023-04-19T02:55:36.382Z,8.10
2023-04-19T02:58:04.225Z,8.10
2023-04-19T03:00:32.098Z,8.10
2023-04-19T03:03:00.658Z,8.10
2023-04-19T03:05:28.589Z,8.10
2023-04-19T03:07:57.737Z,8.00
2023-04-19T03:10:26.105Z,8.10
2023-04-19T03:12:54.111Z,8.00
2023-04-19T03:15:22.173Z,8.00
2023-04-19T03:17:49.991Z,8.00
2023-04-19T03:20:18.229Z,8.00
2023-04-19T03:22:46.039Z,8.00
2023-04-19T03:25:15.876Z,8.00
2023-04-19T03:27:45.203Z,8.00
2023-04-19T03:30:13.951Z,8.10
2023-04-19T03:32:41.784Z,8.10
2023-04-19T03:35:10.515Z,8.20
2023-04-19T03:37:38.331Z,8.20
2023-04-19T03:40:06.877Z,8.20
2023-04-19T03:42:36.023Z,8.20
2023-04-19T03:45:04.124Z,8.10
2023-04-19T03:47:31.992Z,8.00
2023-04-19T03:49:59.821Z,8.10
2023-04-19T03:52:27.683Z,8.10
2023-04-19T03:54:55.525Z,8.10
2023-04-19T03:57:23.338Z,8.20
2023-04-19T03:59:52.422Z,8.10
2023-04-19T04:02:20.305Z,8.10
2023-04-19T04:04:48.336Z,8.10
2023-04-19T04:07:16.283Z,8.00
2023-04-19T04:09:45.016Z,8.00
2023-04-19T04:12:13.195Z,8.00
2023-04-19T04:14:40.971Z,8.00
2023-04-19T04:17:10.097Z,8.00
2023-04-19T04:19:38.183Z,8.00
2023-04-19T04:22:06.621Z,8.00
2023-04-19T04:24:41.367Z,8.00
2023-04-19T04:27:10.229Z,8.00
2023-04-19T04:29:38.473Z,8.10
2023-04-19T04:32:08.267Z,8.00
2023-04-19T04:34:38.056Z,8.10
2023-04-19T04:37:06.881Z,8.00
2023-04-19T04:39:39.123Z,8.00
2023-04-19T04:42:08.633Z,8.00
2023-04-19T04:44:36.619Z,8.00
2023-04-19T04:47:04.542Z,8.10
2023-04-19T04:49:32.367Z,8.00
2023-04-19T04:52:01.576Z,8.00
2023-04-19T04:54:29.399Z,8.00
2023-04-19T04:56:57.282Z,8.00
2023-04-19T04:59:25.116Z,8.00
2023-04-19T05:01:52.946Z,8.00
2023-04-19T05:04:20.927Z,8.00
2023-04-19T05:06:48.742Z,8.00
2023-04-19T05:09:17.906Z,8.00
2023-04-19T05:11:45.734Z,8.00
2023-04-19T05:14:13.763Z,8.10
2023-04-19T05:16:41.846Z,8.10
2023-04-19T05:19:09.878Z,8.10
2023-04-19T05:21:37.737Z,8.10
2023-04-19T05:24:06.386Z,8.10
2023-04-19T05:26:35.575Z,8.10
2023-04-19T05:29:03.345Z,8.10
2023-04-19T05:31:31.260Z,8.10
2023-04-19T05:34:00.988Z,8.20
2023-04-19T05:36:28.964Z,8.10
2023-04-19T05:38:56.745Z,8.10
2023-04-19T05:41:24.552Z,8.20
2023-04-19T05:43:53.757Z,8.30
2023-04-19T05:46:21.591Z,8.20
2023-04-19T05:48:49.399Z,8.10
2023-04-19T05:51:18.825Z,8.10
2023-04-19T05:53:48.793Z,8.10
2023-04-19T05:56:16.580Z,8.20
2023-04-19T05:58:44.461Z,8.20
2023-04-19T06:01:13.781Z,8.20
2023-04-19T06:03:41.818Z,8.20
2023-04-19T06:06:09.969Z,8.10
2023-04-19T06:08:37.869Z,8.20
2023-04-19T06:11:19.819Z,8.30
2023-04-19T06:13:52.584Z,8.30
2023-04-19T06:16:21.832Z,8.40
2023-04-19T06:18:49.916Z,8.40
2023-04-19T06:21:17.859Z,8.30
2023-04-19T06:23:45.718Z,8.20
2023-04-19T06:26:13.513Z,8.20
2023-04-19T06:28:41.593Z,8.20
2023-04-19T06:31:09.457Z,8.20
2023-04-19T06:33:38.649Z,8.20
2023-04-19T06:36:07.178Z,8.00
2023-04-19T06:38:35.038Z,8.10
2023-04-19T06:41:02.860Z,8.20
2023-04-19T06:43:30.627Z,8.10
2023-04-19T06:46:01.861Z,8.20
2023-04-19T06:48:29.866Z,8.30
2023-04-19T06:50:58.967Z,8.30
2023-04-19T06:53:27.383Z,8.30
2023-04-19T06:56:00.912Z,8.30
2023-04-19T06:58:28.969Z,8.30
2023-04-19T07:00:57.150Z,8.40
2023-04-19T07:03:25.586Z,8.30
2023-04-19T07:05:56.029Z,8.40
2023-04-19T07:08:32.171Z,8.50
2023-04-19T07:11:06.817Z,8.40
2023-04-19T07:13:34.640Z,8.40
2023-04-19T07:16:05.685Z,8.50
2023-04-19T07:18:33.645Z,8.40
2023-04-19T07:21:01.492Z,8.50
2023-04-19T07:23:30.856Z,8.50
2023-04-19T07:25:58.672Z,8.70
2023-04-19T07:28:26.538Z,8.80
2023-04-19T07:30:54.367Z,8.70
2023-04-19T07:33:23.254Z,8.70
2023-04-19T07:35:52.543Z,8.70
2023-04-19T07:38:20.470Z,8.70
2023-04-19T07:40:49.833Z,8.60
2023-04-19T07:43:17.614Z,8.80
2023-04-19T07:45:45.437Z,9.00
2023-04-19T07:48:13.225Z,9.20
2023-04-19T07:50:41.053Z,9.40
2023-04-19T07:53:08.812Z,9.50
2023-04-19T07:55:36.682Z,9.50
2023-04-19T07:58:06.287Z,9.50
2023-04-19T08:00:34.840Z,9.60
2023-04-19T08:03:03.821Z,9.50
2023-04-19T08:05:32.280Z,9.50
2023-04-19T08:08:00.115Z,9.80
2023-04-19T08:10:28.950Z,9.70
2023-04-19T08:13:04.516Z,9.70
2023-04-19T08:18:06.881Z,9.80
2023-04-19T08:20:34.843Z,9.80
2023-04-19T08:23:14.093Z,9.80
2023-04-19T08:25:49.018Z,9.90
2023-04-19T08:28:17.450Z,10.00
2023-04-19T08:30:46.625Z,10.00
2023-04-19T08:33:14.538Z,9.90
2023-04-19T08:35:42.835Z,9.90
2023-04-19T08:38:10.869Z,9.90
2023-04-19T08:40:42.546Z,10.00
2023-04-19T08:43:10.343Z,10.00
2023-04-19T08:45:38.942Z,10.30
2023-04-19T08:48:11.692Z,10.50
2023-04-19T08:50:55.902Z,10.50
2023-04-19T08:53:30.896Z,10.50
2023-04-19T08:58:45.864Z,10.40
2023-04-19T09:01:34.056Z,10.50
2023-04-19T09:04:26.418Z,10.50
2023-04-19T09:06:54.348Z,10.40
2023-04-19T09:09:35.458Z,10.60
2023-04-19T09:12:16.148Z,10.90
2023-04-19T09:14:57.821Z,11.00
2023-04-19T09:17:28.088Z,11.10
2023-04-19T09:19:57.504Z,11.30
2023-04-19T09:22:25.736Z,11.50
2023-04-19T09:27:28.471Z,11.30
2023-04-19T09:29:56.601Z,11.30
2023-04-19T09:32:25.122Z,11.40
2023-04-19T09:34:55.003Z,11.30
2023-04-19T09:39:55.368Z,11.60
2023-04-19T09:42:42.330Z,11.90
2023-04-19T09:45:29.342Z,11.70
2023-04-19T09:48:07.166Z,11.90
2023-04-19T09:50:46.208Z,11.80
2023-04-19T09:53:25.129Z,11.40
2023-04-19T09:56:01.600Z,11.50
2023-04-19T10:01:13.247Z,11.70
2023-04-19T10:03:45.674Z,11.60
2023-04-19T10:06:37.387Z,11.40
2023-04-19T10:09:06.623Z,11.60
2023-04-19T10:11:39.533Z,11.70
2023-04-19T10:14:12.144Z,11.80
2023-04-19T10:16:40.735Z,11.80
2023-04-19T10:19:11.481Z,11.80
2023-04-19T10:21:40.751Z,11.70
2023-04-19T10:24:10.626Z,11.60
2023-04-19T10:27:07.699Z,11.20
2023-04-19T10:29:57.963Z,11.40
2023-04-19T10:32:28.302Z,11.30
2023-04-19T10:34:56.119Z,11.00
2023-04-19T10:37:25.911Z,10.80
2023-04-19T10:39:55.041Z,10.80
2023-04-19T10:42:22.891Z,10.60
2023-04-19T10:45:28.036Z,10.50
2023-04-19T10:47:55.907Z,10.60
2023-04-19T10:50:25.885Z,10.50
2023-04-19T10:52:53.768Z,10.50
2023-04-19T10:55:23.098Z,10.50
2023-04-19T10:58:05.368Z,10.40
2023-04-19T11:00:35.909Z,10.40
2023-04-19T11:03:48.172Z,10.70
2023-04-19T11:06:21.351Z,10.70
2023-04-19T11:08:49.204Z,10.80
2023-04-19T11:11:18.438Z,10.90
2023-04-19T11:13:48.765Z,10.80
2023-04-19T11:16:19.009Z,11.00
2023-04-19T11:18:47.253Z,11.10
2023-04-19T11:21:16.192Z,11.10
2023-04-19T11:23:44.053Z,10.90
2023-04-19T11:26:12.489Z,11.00
2023-04-19T11:28:41.798Z,11.00
2023-04-19T11:31:09.609Z,11.10
2023-04-19T11:33:38.048Z,11.20
2023-04-19T11:36:12.742Z,11.20
2023-04-19T11:38:40.498Z,10.90
2023-04-19T11:41:08.849Z,10.80
2023-04-19T11:43:37.696Z,10.80
2023-04-19T11:46:11.180Z,10.60
2023-04-19T11:48:39.924Z,10.30
2023-04-19T11:51:07.904Z,10.10
2023-04-19T11:53:36.167Z,9.80
2023-04-19T11:56:07.053Z,9.60
2023-04-19T11:58:39.741Z,9.50
2023-04-19T12:01:11.520Z,9.50
2023-04-19T12:03:46.261Z,9.40
2023-04-19T12:06:16.230Z,9.40
2023-04-19T12:08:46.988Z,9.40
2023-04-19T12:11:15.552Z,9.40
2023-04-19T12:13:44.333Z,9.40
2023-04-19T12:16:12.720Z,9.30
2023-04-19T12:18:46.225Z,9.30
2023-04-19T12:21:27.297Z,9.30
2023-04-19T12:23:56.723Z,9.40
2023-04-19T12:26:24.480Z,9.30
2023-04-19T12:28:52.383Z,9.30
2023-04-19T12:31:20.799Z,9.50
2023-04-19T12:33:50.788Z,9.60
2023-04-19T12:36:18.588Z,9.60
2023-04-19T12:38:46.740Z,9.40
2023-04-19T12:41:14.500Z,9.20
2023-04-19T12:43:42.318Z,9.10
2023-04-19T12:46:10.209Z,9.20
2023-04-19T12:48:38.057Z,9.10
2023-04-19T12:51:07.222Z,9.20
2023-04-19T12:53:35.156Z,9.20
2023-04-19T12:56:02.890Z,9.10
2023-04-19T12:58:32.076Z,9.10
2023-04-19T13:00:59.897Z,9.00
2023-04-19T13:03:32.800Z,8.90
2023-04-19T13:06:00.921Z,9.10
2023-04-19T13:08:44.110Z,9.20
2023-04-19T13:11:14.506Z,9.30
2023-04-19T13:13:42.370Z,9.40
2023-04-19T13:16:10.950Z,9.40
2023-04-19T13:18:38.984Z,9.50
2023-04-19T13:21:08.460Z,9.40
2023-04-19T13:23:37.953Z,9.30
2023-04-19T13:26:05.987Z,9.20
2023-04-19T13:28:35.736Z,9.10
2023-04-19T13:31:04.846Z,9.00
2023-04-19T13:33:32.873Z,9.00
2023-04-19T13:36:00.766Z,9.00
2023-04-19T13:38:28.546Z,9.10
2023-04-19T13:40:57.685Z,9.00
2023-04-19T13:43:25.613Z,9.00
2023-04-19T13:45:53.441Z,9.00
2023-04-19T13:48:21.475Z,8.90
2023-04-19T13:50:51.154Z,9.00
2023-04-19T13:53:19.069Z,9.00
2023-04-19T13:55:47.260Z,9.10
2023-04-19T13:58:16.422Z,9.10
2023-04-19T14:00:44.290Z,9.00
2023-04-19T14:03:12.524Z,8.90
2023-04-19T14:05:40.706Z,8.80
2023-04-19T14:08:08.542Z,8.70
2023-04-19T14:10:36.610Z,8.60
2023-04-19T14:13:05.224Z,8.40
2023-04-19T14:15:34.556Z,8.30
2023-04-19T14:18:03.433Z,8.20
2023-04-19T14:20:31.360Z,8.20
2023-04-19T14:23:00.260Z,8.20
2023-04-19T14:25:28.277Z,8.20
2023-04-19T14:27:56.093Z,8.20
2023-04-19T14:30:25.840Z,7.90
2023-04-19T14:32:55.421Z,7.80
2023-04-19T14:35:23.429Z,7.80
2023-04-19T14:37:51.223Z,7.70
2023-04-19T14:40:20.512Z,7.70
2023-04-19T14:42:48.328Z,7.70
2023-04-19T14:45:16.329Z,7.60
2023-04-19T14:47:44.230Z,7.70
2023-04-19T14:50:13.577Z,7.60
2023-04-19T14:52:41.478Z,7.50
2023-04-19T14:55:10.752Z,7.40
2023-04-19T14:57:38.538Z,7.20
2023-04-19T15:00:07.829Z,7.10
2023-04-19T15:02:36.126Z,7.20
2023-04-19T15:05:04.356Z,7.20
2023-04-19T15:07:33.649Z,7.00
2023-04-19T15:10:01.566Z,6.70
2023-04-19T15:12:29.376Z,6.60
2023-04-19T15:14:57.283Z,6.50
2023-04-19T15:17:25.193Z,6.30
2023-04-19T15:19:53.028Z,6.30
2023-04-19T15:22:20.842Z,6.50
2023-04-19T15:24:49.964Z,6.60
2023-04-19T15:27:17.719Z,6.60
2023-04-19T15:29:47.750Z,6.50
2023-04-19T15:32:15.699Z,6.50
2023-04-19T15:34:43.448Z,6.60
2023-04-19T15:37:11.264Z,6.60
2023-04-19T15:39:39.060Z,6.60
2023-04-19T15:42:08.235Z,6.50
2023-04-19T15:44:36.042Z,6.50
2023-04-19T15:47:03.902Z,6.40
2023-04-19T15:49:31.905Z,6.50
2023-04-19T15:51:59.689Z,6.60
2023-04-19T15:54:28.768Z,6.60
2023-04-19T15:56:57.167Z,6.60
2023-04-19T15:59:26.734Z,6.60
2023-04-19T16:01:54.625Z,6.70
2023-04-19T16:04:22.493Z,6.70
2023-04-19T16:06:51.055Z,6.80
2023-04-19T16:09:19.270Z,6.90
2023-04-19T16:11:47.226Z,6.90
2023-04-19T16:14:15.260Z,6.90
2023-04-19T16:16:44.426Z,6.80
2023-04-19T16:19:12.192Z,6.70
2023-04-19T16:21:40.327Z,6.80
2023-04-19T16:24:08.458Z,6.70
2023-04-19T16:26:36.250Z,6.80
2023-04-19T16:29:04.046Z,6.60
2023-04-19T16:31:31.971Z,6.60
2023-04-19T16:34:01.109Z,6.60
2023-04-19T16:36:28.934Z,6.40
2023-04-19T16:38:56.728Z,6.50
2023-04-19T16:41:24.486Z,6.50
2023-04-19T16:43:53.056Z,6.50
2023-04-19T16:46:22.124Z,6.50
2023-04-19T16:48:49.949Z,6.40
2023-04-19T16:51:19.107Z,6.20
2023-04-19T16:53:47.252Z,6.10
2023-04-19T16:56:17.526Z,6.00
2023-04-19T16:58:45.998Z,6.10
2023-04-19T17:01:13.908Z,6.10
2023-04-19T17:03:41.835Z,6.10
2023-04-19T17:06:09.709Z,6.20
2023-04-19T17:08:39.013Z,6.20
2023-04-19T17:11:07.011Z,6.20
2023-04-19T17:13:34.788Z,6.30
2023-04-19T17:16:04.559Z,6.40
2023-04-19T17:18:32.723Z,6.40
2023-04-19T17:21:00.582Z,6.50
2023-04-19T17:23:28.419Z,6.50
2023-04-19T17:25:57.551Z,6.50
2023-04-19T17:28:25.374Z,6.40
2023-04-19T17:30:53.137Z,6.40
2023-04-19T17:33:20.968Z,6.30
2023-04-19T17:35:48.731Z,6.30
2023-04-19T17:38:16.875Z,6.30
2023-04-19T17:40:45.031Z,6.30
2023-04-19T17:43:15.056Z,6.20
2023-04-19T17:45:43.006Z,6.20
2023-04-19T17:48:10.795Z,6.10
2023-04-19T17:50:38.622Z,6.10
2023-04-19T17:53:06.428Z,6.20
2023-04-19T17:55:34.336Z,6.20
2023-04-19T17:58:02.125Z,6.10
2023-04-19T18:00:31.291Z,6.10
2023-04-19T18:02:59.191Z,6.10
2023-04-19T18:05:27.284Z,6.10
2023-04-19T18:07:55.110Z,6.00
2023-04-19T18:10:23.113Z,6.00
2023-04-19T18:12:51.262Z,5.90
2023-04-19T18:15:19.130Z,5.90
2023-04-19T18:17:48.949Z,6.00
2023-04-19T18:20:17.130Z,5.90
2023-04-19T18:22:45.565Z,6.00
2023-04-19T18:25:13.426Z,5.90
2023-04-19T18:27:41.172Z,5.90
2023-04-19T18:30:09.930Z,5.80
2023-04-19T18:32:38.085Z,5.80
2023-04-19T18:35:09.965Z,5.80
2023-04-19T18:37:37.880Z,5.80
2023-04-19T18:40:07.172Z,5.80
2023-04-19T18:42:35.141Z,5.80
2023-04-19T18:45:04.066Z,5.70
2023-04-19T18:47:32.035Z,5.70
2023-04-19T18:50:05.277Z,5.80
2023-04-19T18:52:36.286Z,5.80
2023-04-19T18:55:04.909Z,5.90
2023-04-19T18:57:35.076Z,5.90
2023-04-19T19:00:05.119Z,5.80
2023-04-19T19:02:33.989Z,5.80
2023-04-19T19:05:02.703Z,5.80
2023-04-19T19:10:09.590Z,5.80
2023-04-19T19:12:42.907Z,5.90
2023-04-19T19:15:11.246Z,5.80
2023-04-19T19:17:39.142Z,5.90
2023-04-19T19:20:09.085Z,5.80
2023-04-19T19:22:36.873Z,5.70
2023-04-19T19:25:06.813Z,5.70
2023-04-19T19:27:35.336Z,5.70
2023-04-19T19:30:03.447Z,5.70
2023-04-19T19:32:31.943Z,5.70
2023-04-19T19:35:04.524Z,5.70
2023-04-19T19:37:34.271Z,5.70
2023-04-19T19:40:05.143Z,5.60
2023-04-19T19:42:35.532Z,5.60
2023-04-19T19:45:04.248Z,5.50
2023-04-19T19:47:35.164Z,5.50
2023-04-19T19:50:46.128Z,5.60
2023-04-19T19:52:52.654Z,5.60
2023-04-19T19:55:20.593Z,5.50
2023-04-19T19:58:21.035Z,5.40
2023-04-19T20:00:45.402Z,5.50
2023-04-19T20:03:14.439Z,5.50
2023-04-19T20:05:42.648Z,5.60
2023-04-19T20:08:12.631Z,5.50
2023-04-19T20:10:42.671Z,5.60
2023-04-19T20:13:12.910Z,5.60
2023-04-19T20:15:41.336Z,5.60
2023-04-19T20:18:09.214Z,5.60
2023-04-19T20:20:37.407Z,5.60
2023-04-19T20:23:05.602Z,5.50
2023-04-19T20:25:33.478Z,5.50
2023-04-19T20:28:02.181Z,5.50
2023-04-19T20:30:31.296Z,5.50
2023-04-19T20:32:59.308Z,5.50
2023-04-19T20:35:27.302Z,5.60
2023-04-19T20:38:02.213Z,5.40
2023-04-19T20:40:32.034Z,5.60
2023-04-19T20:42:59.944Z,5.40
2023-04-19T20:45:28.416Z,5.40
2023-04-19T20:47:58.512Z,5.60
2023-04-19T20:50:26.665Z,5.60
2023-04-19T20:52:54.545Z,5.50
2023-04-19T20:55:22.326Z,5.40
2023-04-19T20:57:50.097Z,5.50
2023-04-19T21:00:18.602Z,5.40
2023-04-19T21:02:46.469Z,5.50
2023-04-19T21:05:15.725Z,5.40
2023-04-19T21:07:43.580Z,5.30
2023-04-19T21:10:13.527Z,5.30
2023-04-19T21:12:41.296Z,5.40
2023-04-19T21:15:11.907Z,5.40
2023-04-19T21:17:39.849Z,5.40
2023-04-19T21:20:12.231Z,5.50
2023-04-19T21:22:42.098Z,5.40
2023-04-19T21:25:11.071Z,5.40
2023-04-19T21:27:39.851Z,5.40
2023-04-19T21:30:09.529Z,5.50
2023-04-19T21:32:37.318Z,5.40
2023-04-19T21:35:05.624Z,5.40
2023-04-19T21:37:33.429Z,5.30
2023-04-19T21:40:02.684Z,5.40
2023-04-19T21:42:31.007Z,5.50
2023-04-19T21:44:59.007Z,5.50
2023-04-19T21:47:27.504Z,5.50
2023-04-19T21:49:55.339Z,5.40
2023-04-19T21:52:23.160Z,5.40
2023-04-19T21:54:50.992Z,5.30
2023-04-19T21:57:21.996Z,5.30
2023-04-19T21:59:49.834Z,5.30
2023-04-19T22:02:17.925Z,5.30
2023-04-19T22:04:45.885Z,5.20
2023-04-19T22:07:13.871Z,5.30
2023-04-19T22:09:41.628Z,5.30
2023-04-19T22:12:11.520Z,5.40
2023-04-19T22:14:40.735Z,5.50
2023-04-19T22:17:08.925Z,5.40
2023-04-19T22:19:37.929Z,5.40
2023-04-19T22:22:05.765Z,5.30
2023-04-19T22:24:35.775Z,5.20
2023-04-19T22:27:05.216Z,5.30
2023-04-19T22:29:34.300Z,5.30
2023-04-19T22:32:03.531Z,5.40
2023-04-19T22:34:31.467Z,5.40
2023-04-19T22:36:59.233Z,5.40
2023-04-19T22:39:27.062Z,5.40
2023-04-19T22:41:55.094Z,5.40
2023-04-19T22:44:22.917Z,5.40
2023-04-19T22:46:51.631Z,5.40
2023-04-19T22:49:22.125Z,5.40
2023-04-19T22:51:50.552Z,5.30
2023-04-19T22:54:18.363Z,5.20
2023-04-19T22:56:46.178Z,5.30
2023-04-19T22:59:14.607Z,5.30
2023-04-19T23:01:42.744Z,5.40
2023-04-19T23:04:15.341Z,5.50
2023-04-19T23:06:45.292Z,5.50
2023-04-19T23:09:13.858Z,5.50
2023-04-19T23:11:42.265Z,5.50
2023-04-19T23:14:10.317Z,5.50
2023-04-19T23:16:39.200Z,5.40
2023-04-19T23:19:07.464Z,5.50
2023-04-19T23:21:35.958Z,5.50
2023-04-19T23:24:05.473Z,5.40
2023-04-19T23:26:33.314Z,5.50
2023-04-19T23:29:01.149Z,5.40
2023-04-19T23:31:28.979Z,5.50
2023-04-19T23:33:56.876Z,5.40
2023-04-19T23:36:24.638Z,5.40
2023-04-19T23:38:52.400Z,5.40
2023-04-19T23:41:21.994Z,5.40
2023-04-19T23:43:49.848Z,5.30
2023-04-19T23:46:17.708Z,5.40
2023-04-19T23:48:45.641Z,5.30
2023-04-19T23:51:13.384Z,5.30
2023-04-19T23:53:41.649Z,5.30
2023-04-19T23:56:09.533Z,5.40
2023-04-19T23:58:38.649Z,5.30
